createdAt,value
2022-12-09T00:00:10.293Z,72590.41
2022-12-09T00:00:43.076Z,72590.41
2022-12-09T00:01:19.950Z,72586.44
2022-12-09T00:01:52.388Z,72588.41
2022-12-09T00:02:24.912Z,72590.41
2022-12-09T00:02:59.955Z,72590.41
2022-12-09T00:03:32.887Z,72586.44
2022-12-09T00:04:05.614Z,72586.44
2022-12-09T00:04:40.640Z,72586.44
2022-12-09T00:05:13.190Z,72584.44
2022-12-09T00:05:45.545Z,72586.44
2022-12-09T00:06:21.575Z,72588.41
2022-12-09T00:06:54.033Z,72582.44
2022-12-09T00:07:26.252Z,72578.44
2022-12-09T00:08:01.168Z,72584.44
2022-12-09T00:08:33.633Z,72584.44
2022-12-09T00:09:06.327Z,72588.41
2022-12-09T00:09:41.366Z,72586.44
2022-12-09T00:10:13.581Z,72586.44
2022-12-09T00:10:45.992Z,72584.44
2022-12-09T00:11:24.271Z,72590.41
2022-12-09T00:11:56.643Z,72586.44
2022-12-09T00:12:28.984Z,72588.41
2022-12-09T00:13:03.907Z,72586.44
2022-12-09T00:13:36.625Z,72590.41
2022-12-09T00:14:10.311Z,72590.41
2022-12-09T00:14:45.149Z,72586.44
2022-12-09T00:15:17.655Z,72582.44
2022-12-09T00:15:50.107Z,72586.44
2022-12-09T00:16:25.641Z,72584.44
2022-12-09T00:16:58.188Z,72586.44
2022-12-09T00:17:31.329Z,72588.41
2022-12-09T00:18:06.393Z,72590.41
2022-12-09T00:18:38.813Z,72590.41
2022-12-09T00:19:13.908Z,72586.44
2022-12-09T00:19:46.933Z,72586.44
2022-12-09T00:20:19.416Z,72586.44
2022-12-09T00:20:54.477Z,72592.41
2022-12-09T00:21:32.347Z,72594.41
2022-12-09T00:22:04.940Z,72594.41
2022-12-09T00:22:39.864Z,72590.41
2022-12-09T00:23:12.221Z,72594.41
2022-12-09T00:23:44.743Z,72592.41
2022-12-09T00:24:19.600Z,72594.41
2022-12-09T00:24:51.918Z,72600.41
2022-12-09T00:25:24.396Z,72594.41
2022-12-09T00:26:00.111Z,72594.41
2022-12-09T00:26:35.003Z,72598.41
2022-12-09T00:27:07.399Z,72596.41
2022-12-09T00:27:42.308Z,72596.41
2022-12-09T00:28:14.552Z,72594.41
2022-12-09T00:28:47.627Z,72592.41
2022-12-09T00:29:22.707Z,72594.41
2022-12-09T00:29:55.182Z,72594.41
2022-12-09T00:30:27.678Z,72602.38
2022-12-09T00:31:03.096Z,72596.41
2022-12-09T00:31:36.956Z,72594.41
2022-12-09T00:32:10.364Z,72594.41
2022-12-09T00:32:45.792Z,72592.41
2022-12-09T00:33:18.700Z,72598.41
2022-12-09T00:33:51.761Z,72598.41
2022-12-09T00:34:26.670Z,72590.41
2022-12-09T00:34:58.913Z,72592.41
2022-12-09T00:35:31.131Z,72590.41
2022-12-09T00:36:07.364Z,72592.41
2022-12-09T00:36:42.813Z,72594.41
2022-12-09T00:37:15.130Z,72592.41
2022-12-09T00:37:47.624Z,72590.41
2022-12-09T00:38:23.916Z,72590.41
2022-12-09T00:38:57.437Z,72592.41
2022-12-09T00:39:29.874Z,72586.44
2022-12-09T00:40:05.273Z,72586.44
2022-12-09T00:40:37.996Z,72586.44
2022-12-09T00:41:10.497Z,72578.44
2022-12-09T00:41:49.268Z,72580.44
2022-12-09T00:42:21.732Z,72586.44
2022-12-09T00:42:54.153Z,72578.44
2022-12-09T00:43:29.295Z,72574.44
2022-12-09T00:44:01.795Z,72582.44
2022-12-09T00:44:34.116Z,72582.44
2022-12-09T00:45:11.248Z,72578.44
2022-12-09T00:45:43.520Z,72574.44
2022-12-09T00:46:16.644Z,72576.44
2022-12-09T00:46:52.359Z,72582.44
2022-12-09T00:47:24.735Z,72578.44
2022-12-09T00:47:57.197Z,72578.44
2022-12-09T00:48:34.443Z,72574.44
2022-12-09T00:49:06.992Z,72578.44
2022-12-09T00:49:41.959Z,72578.44
2022-12-09T00:50:14.519Z,72574.44
2022-12-09T00:50:47.287Z,72578.44
2022-12-09T00:51:24.188Z,72574.44
2022-12-09T00:51:56.605Z,72574.44
2022-12-09T00:52:28.869Z,72578.44
2022-12-09T00:53:03.705Z,72582.44
2022-12-09T00:53:35.943Z,72584.44
2022-12-09T00:54:11.495Z,72584.44
2022-12-09T00:54:43.879Z,72582.44
2022-12-09T00:55:16.681Z,72582.44
2022-12-09T00:55:51.910Z,72580.44
2022-12-09T00:56:25.481Z,72580.44
2022-12-09T00:57:00.559Z,72582.44
2022-12-09T00:57:35.525Z,72586.44
2022-12-09T00:58:07.936Z,72586.44
2022-12-09T00:58:40.358Z,72582.44
2022-12-09T00:59:15.301Z,72582.44
2022-12-09T00:59:47.618Z,72586.44
2022-12-09T01:00:20.372Z,72580.44
2022-12-09T01:00:56.332Z,72584.44
2022-12-09T01:01:30.241Z,72586.44
2022-12-09T01:02:02.731Z,72590.41
2022-12-09T01:02:39.207Z,72590.41
2022-12-09T01:03:13.092Z,72586.44
2022-12-09T01:03:45.944Z,72586.44
2022-12-09T01:04:20.969Z,72586.44
2022-12-09T01:04:53.437Z,72582.44
2022-12-09T01:05:25.684Z,72578.44
2022-12-09T01:06:00.802Z,72578.44
2022-12-09T01:06:33.250Z,72574.44
2022-12-09T01:07:05.588Z,72580.44
2022-12-09T01:07:40.751Z,72578.44
2022-12-09T01:08:13.599Z,72578.44
2022-12-09T01:08:46.373Z,72580.44
2022-12-09T01:09:22.783Z,72572.44
2022-12-09T01:09:55.034Z,72574.44
2022-12-09T01:10:28.543Z,72572.44
2022-12-09T01:11:03.456Z,72578.44
2022-12-09T01:11:36.754Z,72578.44
2022-12-09T01:12:11.715Z,72574.44
2022-12-09T01:12:46.954Z,72574.44
2022-12-09T01:13:19.374Z,72574.44
2022-12-09T01:13:57.827Z,72574.44
2022-12-09T01:14:30.192Z,72574.44
2022-12-09T01:15:02.738Z,72570.47
2022-12-09T01:15:37.740Z,72574.44
2022-12-09T01:16:21.079Z,72570.47
2022-12-09T01:16:56.481Z,72570.47
2022-12-09T01:17:28.911Z,72574.44
2022-12-09T01:18:01.309Z,72576.44
2022-12-09T01:18:33.548Z,72576.44
2022-12-09T01:19:10.341Z,72574.44
2022-12-09T01:19:42.880Z,72578.44
2022-12-09T01:20:15.139Z,72578.44
2022-12-09T01:20:59.400Z,72578.44
2022-12-09T01:21:32.855Z,72574.44
2022-12-09T01:22:05.768Z,72572.44
2022-12-09T01:22:40.789Z,72578.44
2022-12-09T01:23:13.193Z,72582.44
2022-12-09T01:23:45.854Z,72584.44
2022-12-09T01:24:20.965Z,72580.44
2022-12-09T01:24:55.162Z,72580.44
2022-12-09T01:25:27.801Z,72582.44
2022-12-09T01:26:02.670Z,72582.44
2022-12-09T01:26:35.032Z,72586.44
2022-12-09T01:27:10.069Z,72584.44
2022-12-09T01:27:44.952Z,72590.41
2022-12-09T01:28:17.212Z,72578.44
2022-12-09T01:28:53.427Z,72584.44
2022-12-09T01:29:25.933Z,72580.44
2022-12-09T01:29:58.273Z,72586.44
2022-12-09T01:30:33.291Z,72586.44
2022-12-09T01:31:07.328Z,72588.41
2022-12-09T01:31:40.017Z,72582.44
2022-12-09T01:32:15.287Z,72582.44
2022-12-09T01:32:47.839Z,72576.44
2022-12-09T01:33:20.356Z,72586.44
2022-12-09T01:33:57.731Z,72590.41
2022-12-09T01:34:31.436Z,72590.41
2022-12-09T01:35:05.156Z,72586.44
2022-12-09T01:35:40.781Z,72594.41
2022-12-09T01:36:18.200Z,72590.41
2022-12-09T01:36:50.609Z,72590.41
2022-12-09T01:37:22.970Z,72586.44
2022-12-09T01:37:57.922Z,72592.41
2022-12-09T01:38:30.171Z,72586.44
2022-12-09T01:39:02.399Z,72590.41
2022-12-09T01:39:37.599Z,72582.44
2022-12-09T01:40:17.042Z,72586.44
2022-12-09T01:40:49.453Z,72586.44
2022-12-09T01:41:22.322Z,72588.41
2022-12-09T01:41:57.223Z,72582.44
2022-12-09T01:42:29.686Z,72586.44
2022-12-09T01:43:04.709Z,72578.44
2022-12-09T01:43:37.772Z,72590.41
2022-12-09T01:44:15.072Z,72586.44
2022-12-09T01:45:30.762Z,72586.44
2022-12-09T01:46:06.247Z,72592.41
2022-12-09T01:46:39.115Z,72586.44
2022-12-09T01:47:24.389Z,72586.44
2022-12-09T01:48:00.804Z,72582.44
2022-12-09T01:48:35.035Z,72582.44
2022-12-09T01:49:13.792Z,72582.44
2022-12-09T01:49:48.422Z,72578.44
2022-12-09T01:50:21.369Z,72578.44
2022-12-09T01:50:59.603Z,72574.44
2022-12-09T01:51:32.287Z,72578.44
2022-12-09T01:52:12.561Z,72578.44
2022-12-09T01:52:45.292Z,72582.44
2022-12-09T01:53:19.103Z,72574.44
2022-12-09T01:53:54.856Z,72582.44
2022-12-09T01:54:27.363Z,72574.44
2022-12-09T01:54:59.655Z,72572.44
2022-12-09T01:55:32.295Z,72578.44
2022-12-09T01:56:10.716Z,72576.44
2022-12-09T01:56:43.081Z,72582.44
2022-12-09T01:57:15.894Z,72576.44
2022-12-09T01:57:51.211Z,72574.44
2022-12-09T01:58:26.562Z,72572.44
2022-12-09T01:59:01.769Z,72570.47
2022-12-09T01:59:36.808Z,72570.47
2022-12-09T02:00:11.155Z,72564.47
2022-12-09T02:00:49.470Z,72564.47
2022-12-09T02:01:27.860Z,72554.50
2022-12-09T02:02:01.882Z,72560.47
2022-12-09T02:02:36.908Z,72556.50
2022-12-09T02:03:12.560Z,72558.47
2022-12-09T02:03:45.639Z,72554.50
2022-12-09T02:04:18.188Z,72554.50
2022-12-09T02:04:53.531Z,72554.50
2022-12-09T02:05:29.239Z,72548.50
2022-12-09T02:06:04.563Z,72548.50
2022-12-09T02:06:40.435Z,72552.50
2022-12-09T02:07:15.725Z,72554.50
2022-12-09T02:07:48.315Z,72550.50
2022-12-09T02:08:24.193Z,72562.47
2022-12-09T02:08:57.660Z,72540.53
2022-12-09T02:09:32.225Z,72530.53
2022-12-09T02:10:11.740Z,72518.56
2022-12-09T02:10:56.871Z,72498.59
2022-12-09T02:11:40.912Z,72490.63
2022-12-09T02:12:15.387Z,72482.63
2022-12-09T02:12:53.944Z,72478.66
2022-12-09T02:13:37.112Z,72470.66
2022-12-09T02:14:17.330Z,72464.69
2022-12-09T02:15:02.009Z,72458.69
2022-12-09T02:15:41.215Z,72450.72
2022-12-09T02:16:17.898Z,72440.72
2022-12-09T02:16:57.201Z,72434.75
2022-12-09T02:17:36.962Z,72428.75
2022-12-09T02:18:15.736Z,72412.78
2022-12-09T02:18:55.195Z,72410.78
2022-12-09T02:19:41.273Z,72398.81
2022-12-09T02:20:19.315Z,72394.81
2022-12-09T02:20:59.425Z,72390.84
2022-12-09T02:21:35.096Z,72382.84
2022-12-09T02:22:08.712Z,72382.84
2022-12-09T02:22:47.029Z,72374.88
2022-12-09T02:23:23.703Z,72370.88
2022-12-09T02:24:03.078Z,72370.88
2022-12-09T02:24:41.937Z,72374.88
2022-12-09T02:25:22.780Z,72380.84
2022-12-09T02:26:00.859Z,72378.84
2022-12-09T02:26:39.203Z,72382.84
2022-12-09T02:27:17.756Z,72386.84
2022-12-09T02:27:57.614Z,72386.84
2022-12-09T02:29:02.655Z,72398.81
2022-12-09T02:29:51.244Z,72404.81
2022-12-09T02:30:25.189Z,72414.78
2022-12-09T02:31:04.643Z,72418.78
2022-12-09T02:31:58.014Z,72428.75
2022-12-09T02:33:05.085Z,72434.75
2022-12-09T02:33:46.237Z,72442.72
2022-12-09T02:34:23.938Z,72444.72
2022-12-09T02:35:08.405Z,72442.72
2022-12-09T02:35:47.417Z,72458.69
2022-12-09T02:36:21.549Z,72456.69
2022-12-09T02:36:59.678Z,72460.69
2022-12-09T02:37:38.359Z,72464.69
2022-12-09T02:38:12.647Z,72462.69
2022-12-09T02:38:45.136Z,72460.69
2022-12-09T02:39:21.906Z,72466.66
2022-12-09T02:39:57.894Z,72472.66
2022-12-09T02:40:34.715Z,72474.66
2022-12-09T02:41:12.536Z,72474.66
2022-12-09T02:41:50.154Z,72478.66
2022-12-09T02:42:24.768Z,72482.63
2022-12-09T02:43:01.853Z,72486.63
2022-12-09T02:43:38.561Z,72486.63
2022-12-09T02:44:16.449Z,72490.63
2022-12-09T02:44:50.119Z,72490.63
2022-12-09T02:45:26.976Z,72486.63
2022-12-09T02:46:03.596Z,72494.63
2022-12-09T02:46:36.944Z,72490.63
2022-12-09T02:47:16.752Z,72498.59
2022-12-09T02:47:54.677Z,72490.63
2022-12-09T02:48:32.367Z,72494.63
2022-12-09T02:49:06.744Z,72500.59
2022-12-09T02:49:44.915Z,72496.59
2022-12-09T02:50:21.122Z,72498.59
2022-12-09T02:50:54.253Z,72496.59
2022-12-09T02:51:30.871Z,72490.63
2022-12-09T02:52:04.261Z,72498.59
2022-12-09T02:52:37.128Z,72494.63
2022-12-09T02:53:14.183Z,72494.63
2022-12-09T02:53:49.079Z,72498.59
2022-12-09T02:54:22.894Z,72500.59
2022-12-09T02:55:00.896Z,72496.59
2022-12-09T02:55:33.685Z,72494.63
2022-12-09T02:56:07.768Z,72500.59
2022-12-09T02:56:45.608Z,72502.59
2022-12-09T02:57:19.944Z,72506.59
2022-12-09T02:57:54.444Z,72510.59
2022-12-09T02:58:29.375Z,72506.59
2022-12-09T02:59:02.470Z,72504.59
2022-12-09T02:59:35.030Z,72506.59
2022-12-09T03:00:11.947Z,72512.56
2022-12-09T03:00:45.062Z,72508.59
2022-12-09T03:01:21.923Z,72506.59
2022-12-09T03:02:04.071Z,72510.59
2022-12-09T03:02:38.688Z,72504.59
2022-12-09T03:03:17.737Z,72504.59
2022-12-09T03:03:51.320Z,72504.59
2022-12-09T03:04:24.994Z,72502.59
2022-12-09T03:05:11.460Z,72502.59
2022-12-09T03:05:49.499Z,72494.63
2022-12-09T03:06:24.212Z,72494.63
2022-12-09T03:07:02.788Z,72494.63
2022-12-09T03:07:41.490Z,72494.63
2022-12-09T03:08:17.845Z,72496.59
2022-12-09T03:08:58.387Z,72488.63
2022-12-09T03:09:34.051Z,72498.59
2022-12-09T03:10:11.855Z,72490.63
2022-12-09T03:10:54.174Z,72490.63
2022-12-09T03:11:27.391Z,72494.63
2022-12-09T03:12:02.701Z,72492.63
2022-12-09T03:12:38.384Z,72494.63
2022-12-09T03:13:12.971Z,72494.63
2022-12-09T03:13:52.516Z,72498.59
2022-12-09T03:14:31.358Z,72500.59
2022-12-09T03:15:06.948Z,72498.59
2022-12-09T03:15:44.150Z,72496.59
2022-12-09T03:16:25.246Z,72494.63
2022-12-09T03:17:02.350Z,72494.63
2022-12-09T03:17:36.887Z,72494.63
2022-12-09T03:18:11.095Z,72494.63
2022-12-09T03:18:50.027Z,72498.59
2022-12-09T03:19:27.226Z,72494.63
2022-12-09T03:20:08.943Z,72492.63
2022-12-09T03:20:42.290Z,72490.63
2022-12-09T03:21:17.893Z,72486.63
2022-12-09T03:21:54.043Z,72484.63
2022-12-09T03:22:29.283Z,72490.63
2022-12-09T03:23:06.489Z,72480.66
2022-12-09T03:23:39.190Z,72482.63
2022-12-09T03:24:13.636Z,72486.63
2022-12-09T03:24:53.095Z,72486.63
2022-12-09T03:25:29.816Z,72482.63
2022-12-09T03:26:04.651Z,72480.66
2022-12-09T03:26:40.748Z,72482.63
2022-12-09T03:27:16.404Z,72482.63
2022-12-09T03:27:52.905Z,72486.63
2022-12-09T03:28:31.983Z,72490.63
2022-12-09T03:29:08.141Z,72492.63
2022-12-09T03:29:43.383Z,72490.63
2022-12-09T03:30:19.209Z,72490.63
2022-12-09T03:30:53.951Z,72478.66
2022-12-09T03:31:28.344Z,72472.66
2022-12-09T03:32:03.717Z,72452.69
2022-12-09T03:32:38.480Z,72430.75
2022-12-09T03:33:12.195Z,72414.78
2022-12-09T03:33:48.113Z,72394.81
2022-12-09T03:34:23.437Z,72380.84
2022-12-09T03:35:04.566Z,72362.88
2022-12-09T03:35:41.809Z,72354.91
2022-12-09T03:36:14.881Z,72338.94
2022-12-09T03:36:49.206Z,72332.97
2022-12-09T03:37:24.357Z,72326.97
2022-12-09T03:37:57.610Z,72313.00
2022-12-09T03:38:33.228Z,72311.00
2022-12-09T03:39:09.920Z,72297.03
2022-12-09T03:39:43.251Z,72291.03
2022-12-09T03:40:18.787Z,72287.06
2022-12-09T03:40:58.754Z,72279.06
2022-12-09T03:41:32.669Z,72271.09
2022-12-09T03:42:07.874Z,72275.06
2022-12-09T03:42:54.243Z,72271.09
2022-12-09T03:43:28.262Z,72263.09
2022-12-09T03:44:05.278Z,72259.13
2022-12-09T03:44:42.712Z,72253.13
2022-12-09T03:45:16.560Z,72257.13
2022-12-09T03:45:49.103Z,72251.13
2022-12-09T03:46:25.186Z,72247.13
2022-12-09T03:46:57.665Z,72239.16
2022-12-09T03:47:30.373Z,72243.16
2022-12-09T03:48:06.302Z,72239.16
2022-12-09T03:48:38.537Z,72235.16
2022-12-09T03:49:14.270Z,72235.16
2022-12-09T03:49:46.491Z,72235.16
2022-12-09T03:50:22.541Z,72235.16
2022-12-09T03:50:59.675Z,72231.19
2022-12-09T03:51:35.321Z,72227.19
2022-12-09T03:52:10.771Z,72231.19
2022-12-09T03:52:48.391Z,72225.19
2022-12-09T03:53:22.724Z,72225.19
2022-12-09T03:53:59.431Z,72213.22
2022-12-09T03:54:37.993Z,72211.22
2022-12-09T03:55:28.705Z,72211.22
2022-12-09T03:56:10.411Z,72203.22
2022-12-09T03:56:45.640Z,72209.22
2022-12-09T03:57:19.874Z,72203.22
2022-12-09T03:57:58.790Z,72207.22
2022-12-09T03:58:34.048Z,72207.22
2022-12-09T03:59:13.843Z,72207.22
2022-12-09T03:59:50.916Z,72207.22
2022-12-09T04:00:23.283Z,72215.22
2022-12-09T04:00:58.571Z,72215.22
2022-12-09T04:01:32.886Z,72215.22
2022-12-09T04:02:08.586Z,72211.22
2022-12-09T04:02:41.086Z,72219.19
2022-12-09T04:03:14.846Z,72213.22
2022-12-09T04:03:52.240Z,72219.19
2022-12-09T04:04:24.707Z,72213.22
2022-12-09T04:04:57.204Z,72221.19
2022-12-09T04:05:35.109Z,72215.22
2022-12-09T04:06:08.370Z,72215.22
2022-12-09T04:06:40.701Z,72219.19
2022-12-09T04:07:15.919Z,72215.22
2022-12-09T04:07:48.190Z,72227.19
2022-12-09T04:08:20.775Z,72221.19
2022-12-09T04:09:00.868Z,72221.19
2022-12-09T04:09:34.567Z,72223.19
2022-12-09T04:10:11.267Z,72223.19
2022-12-09T04:10:43.731Z,72219.19
2022-12-09T04:11:16.000Z,72225.19
2022-12-09T04:11:50.971Z,72215.22
2022-12-09T04:12:23.657Z,72219.19
2022-12-09T04:12:55.927Z,72215.22
2022-12-09T04:13:30.744Z,72215.22
2022-12-09T04:14:03.723Z,72219.19
2022-12-09T04:14:36.509Z,72217.19
2022-12-09T04:15:12.721Z,72223.19
2022-12-09T04:15:44.978Z,72215.22
2022-12-09T04:16:17.249Z,72227.19
2022-12-09T04:16:52.454Z,72219.19
2022-12-09T04:17:24.952Z,72219.19
2022-12-09T04:17:57.493Z,72221.19
2022-12-09T04:18:32.948Z,72219.19
2022-12-09T04:19:05.614Z,72219.19
2022-12-09T04:19:38.203Z,72215.22
2022-12-09T04:20:14.897Z,72215.22
2022-12-09T04:20:50.591Z,72221.19
2022-12-09T04:21:22.854Z,72219.19
2022-12-09T04:21:57.726Z,72219.19
2022-12-09T04:22:30.630Z,72225.19
2022-12-09T04:23:03.020Z,72221.19
2022-12-09T04:23:40.857Z,72219.19
2022-12-09T04:24:17.982Z,72219.19
2022-12-09T04:24:50.355Z,72215.22
2022-12-09T04:25:22.887Z,72223.19
2022-12-09T04:25:57.836Z,72217.19
2022-12-09T04:26:30.382Z,72217.19
2022-12-09T04:27:03.010Z,72221.19
2022-12-09T04:27:38.265Z,72219.19
2022-12-09T04:28:10.557Z,72219.19
2022-12-09T04:28:43.286Z,72215.22
2022-12-09T04:29:18.370Z,72219.19
2022-12-09T04:29:50.713Z,72211.22
2022-12-09T04:30:23.007Z,72215.22
2022-12-09T04:30:58.082Z,72217.19
2022-12-09T04:31:30.841Z,72207.22
2022-12-09T04:32:03.551Z,72209.22
2022-12-09T04:32:38.741Z,72207.22
2022-12-09T04:33:11.369Z,72203.22
2022-12-09T04:33:44.182Z,72203.22
2022-12-09T04:34:16.455Z,72203.22
2022-12-09T04:34:51.621Z,72207.22
2022-12-09T04:35:24.939Z,72201.25
2022-12-09T04:36:05.045Z,72205.22
2022-12-09T04:36:40.042Z,72201.25
2022-12-09T04:37:13.244Z,72199.25
2022-12-09T04:37:48.092Z,72195.25
2022-12-09T04:38:20.335Z,72203.22
2022-12-09T04:38:52.548Z,72191.25
2022-12-09T04:39:27.718Z,72199.25
2022-12-09T04:40:00.230Z,72199.25
2022-12-09T04:40:32.630Z,72197.25
2022-12-09T04:41:07.830Z,72203.22
2022-12-09T04:41:40.072Z,72193.25
2022-12-09T04:42:12.284Z,72191.25
2022-12-09T04:42:47.428Z,72187.28
2022-12-09T04:43:19.807Z,72195.25
2022-12-09T04:43:52.036Z,72191.25
2022-12-09T04:44:26.916Z,72189.25
2022-12-09T04:44:59.422Z,72187.28
2022-12-09T04:45:31.927Z,72177.28
2022-12-09T04:46:09.001Z,72183.28
2022-12-09T04:46:41.403Z,72187.28
2022-12-09T04:47:13.705Z,72187.28
2022-12-09T04:47:49.436Z,72187.28
2022-12-09T04:48:21.851Z,72183.28
2022-12-09T04:48:56.877Z,72193.25
2022-12-09T04:49:31.071Z,72187.28
2022-12-09T04:50:03.729Z,72187.28
2022-12-09T04:50:38.706Z,72191.25
2022-12-09T04:51:15.494Z,72187.28
2022-12-09T04:51:47.816Z,72187.28
2022-12-09T04:52:22.989Z,72187.28
2022-12-09T04:52:55.338Z,72187.28
2022-12-09T04:53:28.012Z,72195.25
2022-12-09T04:54:03.081Z,72191.25
2022-12-09T04:54:35.658Z,72187.28
2022-12-09T04:55:08.989Z,72191.25
2022-12-09T04:55:43.876Z,72187.28
2022-12-09T04:56:19.096Z,72187.28
2022-12-09T04:56:51.505Z,72187.28
2022-12-09T04:57:26.625Z,72191.25
2022-12-09T04:57:58.877Z,72191.25
2022-12-09T04:58:31.854Z,72189.25
2022-12-09T04:59:07.940Z,72183.28
2022-12-09T04:59:40.210Z,72187.28
2022-12-09T05:00:14.175Z,72185.28
2022-12-09T05:00:49.523Z,72175.28
2022-12-09T05:01:29.805Z,72187.28
2022-12-09T05:02:02.997Z,72187.28
2022-12-09T05:02:38.220Z,72175.28
2022-12-09T05:03:10.684Z,72179.28
2022-12-09T05:03:43.711Z,72179.28
2022-12-09T05:04:18.857Z,72177.28
2022-12-09T05:04:51.617Z,72183.28
2022-12-09T05:05:24.341Z,72187.28
2022-12-09T05:05:59.333Z,72175.28
2022-12-09T05:06:34.547Z,72183.28
2022-12-09T05:07:09.709Z,72179.28
2022-12-09T05:07:42.397Z,72179.28
2022-12-09T05:08:14.963Z,72181.28
2022-12-09T05:08:50.684Z,72175.28
2022-12-09T05:09:23.250Z,72175.28
2022-12-09T05:09:55.913Z,72175.28
2022-12-09T05:10:30.968Z,72175.28
2022-12-09T05:11:04.098Z,72175.28
2022-12-09T05:11:36.877Z,72175.28
2022-12-09T05:12:12.046Z,72177.28
2022-12-09T05:12:44.304Z,72175.28
2022-12-09T05:13:16.707Z,72173.28
2022-12-09T05:13:51.918Z,72175.28
2022-12-09T05:14:24.259Z,72177.28
2022-12-09T05:14:59.106Z,72175.28
2022-12-09T05:15:31.682Z,72177.28
2022-12-09T05:16:12.174Z,72179.28
2022-12-09T05:16:50.838Z,72179.28
2022-12-09T05:17:23.408Z,72185.28
2022-12-09T05:17:56.144Z,72187.28
2022-12-09T05:18:31.614Z,72183.28
2022-12-09T05:19:04.165Z,72179.28
2022-12-09T05:19:36.752Z,72187.28
2022-12-09T05:20:13.164Z,72187.28
2022-12-09T05:20:46.094Z,72179.28
2022-12-09T05:21:20.127Z,72183.28
2022-12-09T05:21:58.124Z,72185.28
2022-12-09T05:22:31.475Z,72189.25
2022-12-09T05:23:09.141Z,72187.28
2022-12-09T05:23:45.099Z,72183.28
2022-12-09T05:24:17.822Z,72185.28
2022-12-09T05:24:50.351Z,72187.28
2022-12-09T05:25:25.552Z,72179.28
2022-12-09T05:25:57.849Z,72185.28
2022-12-09T05:26:30.179Z,72179.28
2022-12-09T05:27:05.391Z,72181.28
2022-12-09T05:27:37.748Z,72175.28
2022-12-09T05:28:10.139Z,72179.28
2022-12-09T05:28:42.472Z,72179.28
2022-12-09T05:29:22.526Z,72171.31
2022-12-09T05:29:55.941Z,72175.28
2022-12-09T05:30:28.378Z,72175.28
2022-12-09T05:31:04.195Z,72175.28
2022-12-09T05:31:36.605Z,72175.28
2022-12-09T05:32:10.059Z,72181.28
2022-12-09T05:32:46.209Z,72171.31
2022-12-09T05:33:18.616Z,72181.28
2022-12-09T05:33:54.748Z,72173.28
2022-12-09T05:34:27.399Z,72175.28
2022-12-09T05:34:59.800Z,72175.28
2022-12-09T05:35:42.608Z,72171.31
2022-12-09T05:36:24.319Z,72167.31
2022-12-09T05:37:02.305Z,72171.31
2022-12-09T05:37:35.050Z,72171.31
2022-12-09T05:38:07.404Z,72175.28
2022-12-09T05:38:42.566Z,72169.31
2022-12-09T05:39:15.287Z,72163.31
2022-12-09T05:39:47.646Z,72161.31
2022-12-09T05:40:22.974Z,72161.31
2022-12-09T05:40:55.325Z,72167.31
2022-12-09T05:41:28.010Z,72163.31
2022-12-09T05:42:03.142Z,72167.31
2022-12-09T05:42:41.124Z,72155.34
2022-12-09T05:43:13.890Z,72161.31
2022-12-09T05:43:49.519Z,72155.34
2022-12-09T05:44:22.029Z,72159.31
2022-12-09T05:44:57.651Z,72159.31
2022-12-09T05:45:30.136Z,72151.34
2022-12-09T05:46:03.053Z,72155.34
2022-12-09T05:46:38.222Z,72155.34
2022-12-09T05:47:10.702Z,72159.31
2022-12-09T05:47:43.347Z,72157.34
2022-12-09T05:48:18.701Z,72155.34
2022-12-09T05:48:51.225Z,72151.34
2022-12-09T05:49:26.890Z,72149.34
2022-12-09T05:50:04.399Z,72155.34
2022-12-09T05:50:40.048Z,72155.34
2022-12-09T05:51:17.462Z,72151.34
2022-12-09T05:51:49.755Z,72157.34
2022-12-09T05:52:24.625Z,72149.34
2022-12-09T05:52:59.757Z,72147.34
2022-12-09T05:53:32.261Z,72143.38
2022-12-09T05:54:08.562Z,72147.34
2022-12-09T05:54:41.624Z,72147.34
2022-12-09T05:55:14.250Z,72147.34
2022-12-09T05:55:49.249Z,72151.34
2022-12-09T05:56:23.487Z,72145.34
2022-12-09T05:56:57.442Z,72151.34
2022-12-09T05:57:32.551Z,72143.38
2022-12-09T05:58:05.231Z,72143.38
2022-12-09T05:58:37.549Z,72147.34
2022-12-09T05:59:13.214Z,72143.38
2022-12-09T05:59:45.503Z,72145.34
2022-12-09T06:00:18.699Z,72135.38
2022-12-09T06:00:56.858Z,72147.34
2022-12-09T06:01:29.963Z,72155.34
2022-12-09T06:02:08.320Z,72169.31
2022-12-09T06:02:44.762Z,72175.28
2022-12-09T06:03:17.893Z,72199.25
2022-12-09T06:03:54.214Z,72211.22
2022-12-09T06:04:27.093Z,72219.19
2022-12-09T06:04:59.582Z,72227.19
2022-12-09T06:05:35.377Z,72239.16
2022-12-09T06:06:09.482Z,72251.13
2022-12-09T06:06:45.142Z,72255.13
2022-12-09T06:07:17.970Z,72271.09
2022-12-09T06:07:53.154Z,72271.09
2022-12-09T06:08:28.300Z,72275.06
2022-12-09T06:09:01.791Z,72283.06
2022-12-09T06:09:34.575Z,72291.03
2022-12-09T06:10:11.660Z,72307.00
2022-12-09T06:10:44.291Z,72313.00
2022-12-09T06:11:18.313Z,72311.00
2022-12-09T06:11:53.657Z,72317.00
2022-12-09T06:12:26.283Z,72322.97
2022-12-09T06:12:58.916Z,72326.97
2022-12-09T06:13:34.114Z,72328.97
2022-12-09T06:14:08.315Z,72336.94
2022-12-09T06:14:43.245Z,72338.94
2022-12-09T06:15:21.259Z,72342.94
2022-12-09T06:15:54.121Z,72346.94
2022-12-09T06:16:29.274Z,72354.91
2022-12-09T06:17:01.760Z,72350.91
2022-12-09T06:17:34.364Z,72350.91
2022-12-09T06:18:09.744Z,72354.91
2022-12-09T06:18:42.674Z,72356.91
2022-12-09T06:19:15.336Z,72358.91
2022-12-09T06:19:50.571Z,72360.91
2022-12-09T06:20:22.945Z,72364.88
2022-12-09T06:20:55.236Z,72360.91
2022-12-09T06:21:30.521Z,72364.88
2022-12-09T06:22:02.888Z,72366.88
2022-12-09T06:22:35.644Z,72364.88
2022-12-09T06:23:13.103Z,72374.88
2022-12-09T06:23:45.640Z,72372.88
2022-12-09T06:24:20.699Z,72374.88
2022-12-09T06:24:57.095Z,72374.88
2022-12-09T06:25:29.694Z,72378.84
2022-12-09T06:26:02.324Z,72378.84
2022-12-09T06:26:37.551Z,72378.84
2022-12-09T06:27:09.925Z,72376.88
2022-12-09T06:27:42.818Z,72378.84
2022-12-09T06:28:19.712Z,72382.84
2022-12-09T06:28:52.883Z,72382.84
2022-12-09T06:29:28.203Z,72384.84
2022-12-09T06:30:00.699Z,72384.84
2022-12-09T06:30:35.960Z,72378.84
2022-12-09T06:31:08.299Z,72382.84
2022-12-09T06:31:41.418Z,72380.84
2022-12-09T06:32:16.540Z,72380.84
2022-12-09T06:32:49.153Z,72382.84
2022-12-09T06:33:52.357Z,72384.84
2022-12-09T06:34:16.577Z,72382.84
2022-12-09T06:34:49.089Z,72382.84
2022-12-09T06:35:22.079Z,72384.84
2022-12-09T06:35:57.251Z,72398.81
2022-12-09T06:36:31.183Z,72390.84
2022-12-09T06:37:04.008Z,72394.81
2022-12-09T06:37:39.156Z,72380.84
2022-12-09T06:38:14.182Z,72386.84
2022-12-09T06:38:49.507Z,72390.84
2022-12-09T06:39:21.796Z,72382.84
2022-12-09T06:39:54.420Z,72388.84
2022-12-09T06:40:29.570Z,72388.84
2022-12-09T06:41:06.468Z,72394.81
2022-12-09T06:41:43.944Z,72394.81
2022-12-09T06:42:16.262Z,72390.84
2022-12-09T06:42:50.561Z,72390.84
2022-12-09T06:43:25.927Z,72390.84
2022-12-09T06:43:58.895Z,72394.81
2022-12-09T06:44:34.262Z,72398.81
2022-12-09T06:45:08.111Z,72386.84
2022-12-09T06:45:40.600Z,72394.81
2022-12-09T06:46:16.237Z,72398.81
2022-12-09T06:46:48.766Z,72398.81
2022-12-09T06:47:24.154Z,72404.81
2022-12-09T06:47:56.574Z,72396.81
2022-12-09T06:48:31.655Z,72402.81
2022-12-09T06:49:04.563Z,72402.81
2022-12-09T06:49:37.144Z,72404.81
2022-12-09T06:50:13.169Z,72406.81
2022-12-09T06:50:45.858Z,72404.81
2022-12-09T06:51:18.534Z,72402.81